createdAt,value
2018-02-16T00:01:01.357Z,99267
2018-02-16T00:03:06.801Z,99271
2018-02-16T00:05:12.399Z,99264
2018-02-16T00:07:17.671Z,99260
2018-02-16T00:09:23.007Z,99251
2018-02-16T00:11:28.899Z,99263
2018-02-16T00:13:34.210Z,99278
2018-02-16T00:15:39.500Z,99288
2018-02-16T00:17:45.551Z,99291
2018-02-16T00:19:51.201Z,99292
2018-02-16T00:21:56.568Z,99289
2018-02-16T00:24:02.301Z,99297
2018-02-16T00:26:08.142Z,99283
2018-02-16T00:28:13.412Z,99289
2018-02-16T00:30:19.498Z,99296
2018-02-16T00:32:24.806Z,99308
2018-02-16T00:34:30.852Z,99313
2018-02-16T00:36:37.177Z,99315
2018-02-16T00:38:43.252Z,99313
2018-02-16T00:40:49.168Z,99311
2018-02-16T00:42:55.544Z,99307
2018-02-16T00:45:00.874Z,99309
2018-02-16T00:47:06.573Z,99309
2018-02-16T00:49:12.782Z,99316
2018-02-16T00:51:18.055Z,99316
2018-02-16T00:53:23.651Z,99321
2018-02-16T00:55:29.674Z,99325
2018-02-16T00:57:35.654Z,99329
2018-02-16T00:59:40.894Z,99330
2018-02-16T01:01:46.668Z,99323
2018-02-16T01:03:52.216Z,99328
2018-02-16T01:05:57.506Z,99338
2018-02-16T01:08:03.556Z,99341
2018-02-16T01:10:09.429Z,99339
2018-02-16T01:12:14.953Z,99341
2018-02-16T01:14:20.646Z,99351
2018-02-16T01:16:27.518Z,99351
2018-02-16T01:18:33.461Z,99349
2018-02-16T01:20:39.128Z,99353
2018-02-16T01:22:45.127Z,99352
2018-02-16T01:24:50.396Z,99352
2018-02-16T01:26:56.692Z,99353
2018-02-16T01:29:01.996Z,99367
2018-02-16T01:31:07.235Z,99368
2018-02-16T01:33:12.558Z,99367
2018-02-16T01:35:18.958Z,99373
2018-02-16T01:37:24.767Z,99381
2018-02-16T01:39:31.926Z,99372
2018-02-16T01:41:37.913Z,99373
2018-02-16T01:43:43.527Z,99371
2018-02-16T01:45:49.312Z,99374
2018-02-16T01:47:54.620Z,99388
2018-02-16T01:50:06.542Z,99391
2018-02-16T01:52:11.823Z,99385
2018-02-16T01:54:17.204Z,99388
2018-02-16T01:56:23.373Z,99388
2018-02-16T01:58:29.631Z,99394
2018-02-16T02:00:35.394Z,99390
2018-02-16T02:02:41.001Z,99403
2018-02-16T02:04:47.111Z,99419
2018-02-16T02:06:53.675Z,99416
2018-02-16T02:08:59.147Z,99418
2018-02-16T02:11:05.321Z,99415
2018-02-16T02:13:10.964Z,99408
2018-02-16T02:15:16.331Z,99404
2018-02-16T02:17:22.047Z,99403
2018-02-16T02:19:29.307Z,99401
2018-02-16T02:21:35.024Z,99400
2018-02-16T02:23:40.621Z,99402
2018-02-16T02:25:46.253Z,99405
2018-02-16T02:27:52.082Z,99410
2018-02-16T02:29:57.611Z,99414
2018-02-16T02:32:03.310Z,99420
2018-02-16T02:34:08.903Z,99420
2018-02-16T02:36:15.030Z,99429
2018-02-16T02:38:20.341Z,99438
2018-02-16T02:40:27.880Z,99444
2018-02-16T02:42:33.461Z,99449
2018-02-16T02:44:39.777Z,99455
2018-02-16T02:46:45.775Z,99459
2018-02-16T02:48:51.574Z,99460
2018-02-16T02:50:57.642Z,99459
2018-02-16T02:53:03.922Z,99462
2018-02-16T02:55:09.742Z,99459
2018-02-16T02:57:15.461Z,99452
2018-02-16T02:59:21.171Z,99458
2018-02-16T03:01:28.568Z,99458
2018-02-16T03:03:34.535Z,99449
2018-02-16T03:05:40.562Z,99462
2018-02-16T03:07:46.817Z,99481
2018-02-16T03:09:52.798Z,99478
2018-02-16T03:11:59.225Z,99475
2018-02-16T03:14:04.506Z,99477
2018-02-16T03:16:10.568Z,99477
2018-02-16T03:18:16.041Z,99480
2018-02-16T03:20:21.999Z,99484
2018-02-16T03:22:29.909Z,99487
2018-02-16T03:24:35.313Z,99485
2018-02-16T03:26:40.834Z,99489
2018-02-16T03:28:46.159Z,99494
2018-02-16T03:30:51.736Z,99498
2018-02-16T03:32:57.022Z,99502
2018-02-16T03:35:02.262Z,99512
2018-02-16T03:37:07.513Z,99510
2018-02-16T03:39:13.126Z,99513
2018-02-16T03:41:19.148Z,99515
2018-02-16T03:43:24.497Z,99528
2018-02-16T03:45:32.650Z,99522
2018-02-16T03:47:38.341Z,99527
2018-02-16T03:49:44.425Z,99523
2018-02-16T03:51:50.205Z,99531
2018-02-16T03:53:55.974Z,99536
2018-02-16T03:56:01.630Z,99539
2018-02-16T03:58:06.893Z,99543
2018-02-16T04:00:12.525Z,99545
2018-02-16T04:02:18.300Z,99547
2018-02-16T04:04:24.121Z,99551
2018-02-16T04:06:32.107Z,99556
2018-02-16T04:08:37.668Z,99561
2018-02-16T04:10:43.820Z,99569
2018-02-16T04:12:49.202Z,99573
2018-02-16T04:14:54.391Z,99574
2018-02-16T04:17:00.489Z,99569
2018-02-16T04:19:06.103Z,99564
2018-02-16T04:21:11.628Z,99573
2018-02-16T04:23:16.972Z,99580
2018-02-16T04:25:22.612Z,99577
2018-02-16T04:27:30.300Z,99584
2018-02-16T04:29:35.674Z,99585
2018-02-16T04:31:41.090Z,99593
2018-02-16T04:33:46.675Z,99588
2018-02-16T04:35:52.038Z,99586
2018-02-16T04:37:57.305Z,99589
2018-02-16T04:40:02.926Z,99593
2018-02-16T04:42:08.232Z,99589
2018-02-16T04:44:13.533Z,99589
2018-02-16T04:46:18.882Z,99597
2018-02-16T04:48:24.643Z,99600
2018-02-16T04:50:32.231Z,99602
2018-02-16T04:52:37.614Z,99599
2018-02-16T04:54:43.106Z,99600
2018-02-16T04:56:48.680Z,99595
2018-02-16T04:58:54.823Z,99593
2018-02-16T05:01:00.256Z,99601
2018-02-16T05:03:05.948Z,99595
2018-02-16T05:05:11.730Z,99603
2018-02-16T05:07:20.238Z,99609
2018-02-16T05:09:25.832Z,99618
2018-02-16T05:11:34.727Z,99623
2018-02-16T05:13:40.151Z,99630
2018-02-16T05:15:45.553Z,99635
2018-02-16T05:17:51.203Z,99641
2018-02-16T05:19:57.869Z,99640
2018-02-16T05:22:03.223Z,99642
2018-02-16T05:24:08.572Z,99636
2018-02-16T05:26:14.298Z,99631
2018-02-16T05:28:19.582Z,99633
2018-02-16T05:30:24.970Z,99633
2018-02-16T05:32:33.340Z,99638
2018-02-16T05:34:39.031Z,99645
2018-02-16T05:36:44.533Z,99649
2018-02-16T05:38:50.046Z,99650
2018-02-16T05:40:56.399Z,99651
2018-02-16T05:43:02.073Z,99648
2018-02-16T05:45:08.203Z,99654
2018-02-16T05:47:13.602Z,99659
2018-02-16T05:49:19.781Z,99657
2018-02-16T05:51:25.166Z,99664
2018-02-16T05:53:31.681Z,99665
2018-02-16T05:55:37.006Z,99664
2018-02-16T05:57:42.970Z,99667
2018-02-16T05:59:48.770Z,99673
2018-02-16T06:01:54.608Z,99671
2018-02-16T06:04:00.298Z,99679
2018-02-16T06:06:05.974Z,99680
2018-02-16T06:08:11.273Z,99688
2018-02-16T06:10:16.645Z,99685
2018-02-16T06:12:22.426Z,99691
2018-02-16T06:14:28.980Z,99689
2018-02-16T06:16:36.653Z,99690
2018-02-16T06:18:42.374Z,99698
2018-02-16T06:20:47.866Z,99696
2018-02-16T06:22:53.479Z,99703
2018-02-16T06:24:59.114Z,99708
2018-02-16T06:27:04.476Z,99705
2018-02-16T06:29:10.841Z,99703
2018-02-16T06:31:17.822Z,99713
2018-02-16T06:33:23.212Z,99703
2018-02-16T06:35:29.933Z,99708
2018-02-16T06:37:35.934Z,99707
2018-02-16T06:39:41.923Z,99716
2018-02-16T06:41:47.251Z,99712
2018-02-16T06:43:53.163Z,99709
2018-02-16T06:45:58.434Z,99704
2018-02-16T06:48:03.749Z,99708
2018-02-16T06:50:11.043Z,99720
2018-02-16T06:52:16.642Z,99726
2018-02-16T06:54:21.930Z,99727
2018-02-16T06:56:28.193Z,99723
2018-02-16T06:58:33.486Z,99728
2018-02-16T07:00:39.068Z,99728
2018-02-16T07:02:45.344Z,99723
2018-02-16T07:04:51.118Z,99726
2018-02-16T07:06:56.910Z,99721
2018-02-16T07:09:02.653Z,99724
2018-02-16T07:11:08.016Z,99722
2018-02-16T07:13:13.339Z,99730
2018-02-16T07:15:18.716Z,99730
2018-02-16T07:17:24.946Z,99737
2018-02-16T07:19:32.134Z,99732
2018-02-16T07:21:38.098Z,99743
2018-02-16T07:23:43.953Z,99744
2018-02-16T07:25:49.447Z,99755
2018-02-16T07:27:54.980Z,99753
2018-02-16T07:30:00.552Z,99758
2018-02-16T07:32:07.878Z,99767
2018-02-16T07:34:13.723Z,99767
2018-02-16T07:36:20.391Z,99769
2018-02-16T07:38:26.182Z,99770
2018-02-16T07:40:33.104Z,99777
2018-02-16T07:42:39.107Z,99773
2018-02-16T07:44:45.843Z,99777
2018-02-16T07:46:51.237Z,99785
2018-02-16T07:48:57.450Z,99792
2018-02-16T07:51:03.202Z,99793
2018-02-16T07:53:08.433Z,99797
2018-02-16T07:55:13.881Z,99790
2018-02-16T07:57:19.386Z,99799
2018-02-16T07:59:24.942Z,99793
2018-02-16T08:01:30.516Z,99789
2018-02-16T08:03:36.330Z,99794
2018-02-16T08:05:41.775Z,99784
2018-02-16T08:07:47.211Z,99788
2018-02-16T08:09:53.591Z,99785
2018-02-16T08:11:58.916Z,99791
2018-02-16T08:14:04.933Z,99792
2018-02-16T08:16:10.219Z,99796
2018-02-16T08:18:15.814Z,99800
2018-02-16T08:20:21.698Z,99793
2018-02-16T08:22:28.314Z,99791
2018-02-16T08:24:35.380Z,99795
2018-02-16T08:26:40.709Z,99798
2018-02-16T08:28:46.066Z,99811
2018-02-16T08:30:51.367Z,99809
2018-02-16T08:32:56.995Z,99801
2018-02-16T08:35:04.199Z,99817
2018-02-16T08:37:10.107Z,99811
2018-02-16T08:39:16.311Z,99810
2018-02-16T08:41:22.125Z,99816
2018-02-16T08:43:28.667Z,99822
2018-02-16T08:45:34.070Z,99818
2018-02-16T08:47:40.573Z,99813
2018-02-16T08:49:46.336Z,99817
2018-02-16T08:51:51.921Z,99827
2018-02-16T08:53:57.747Z,99825
2018-02-16T08:56:03.106Z,99821
2018-02-16T08:58:08.651Z,99824
2018-02-16T09:00:15.318Z,99825
2018-02-16T09:02:20.694Z,99834
2018-02-16T09:04:25.937Z,99839
2018-02-16T09:06:33.255Z,99839
2018-02-16T09:08:40.681Z,99836
2018-02-16T09:10:45.938Z,99842
2018-02-16T09:12:51.501Z,99841
2018-02-16T09:14:56.934Z,99846
2018-02-16T09:17:02.779Z,99835
2018-02-16T09:19:12.409Z,99833
2018-02-16T09:21:17.830Z,99828
2018-02-16T09:23:23.159Z,99840
2018-02-16T09:25:30.575Z,99855
2018-02-16T09:27:36.427Z,99869
2018-02-16T09:29:42.294Z,99853
2018-02-16T09:31:48.039Z,99859
2018-02-16T09:33:53.641Z,99852
2018-02-16T09:36:05.654Z,99856
2018-02-16T09:38:12.223Z,99854
2018-02-16T09:40:19.234Z,99872
2018-02-16T09:42:26.938Z,99863
2018-02-16T09:44:33.739Z,99883
2018-02-16T09:46:39.284Z,99880
2018-02-16T09:48:45.274Z,99877
2018-02-16T09:50:51.053Z,99884
2018-02-16T09:52:56.322Z,99887
2018-02-16T09:55:04.789Z,99891
2018-02-16T09:57:10.519Z,99885
2018-02-16T09:59:17.617Z,99891
2018-02-16T10:01:22.947Z,99888
2018-02-16T10:03:30.035Z,99894
2018-02-16T10:05:35.978Z,99902
2018-02-16T10:07:41.422Z,99893
2018-02-16T10:09:46.967Z,99897
2018-02-16T10:11:52.283Z,99901
2018-02-16T10:13:58.574Z,99903
2018-02-16T10:16:06.335Z,99911
2018-02-16T10:18:11.981Z,99927
2018-02-16T10:20:17.333Z,99940
2018-02-16T10:22:22.914Z,99943
2018-02-16T10:24:28.208Z,99952
2018-02-16T10:26:34.319Z,99960
2018-02-16T10:28:40.690Z,99950
2018-02-16T10:30:45.919Z,99949
2018-02-16T10:32:51.222Z,99949
2018-02-16T10:34:56.850Z,99956
2018-02-16T10:37:02.258Z,99950
2018-02-16T10:39:08.227Z,99953
2018-02-16T10:41:13.926Z,99960
2018-02-16T10:43:19.319Z,99987
2018-02-16T10:45:26.411Z,99977
2018-02-16T10:47:33.314Z,99980
2018-02-16T10:49:38.610Z,100001
2018-02-16T10:51:43.972Z,100014
2018-02-16T10:53:49.639Z,99999
2018-02-16T10:55:54.970Z,99989
2018-02-16T10:58:00.810Z,99979
2018-02-16T11:00:07.389Z,99971
2018-02-16T11:02:16.629Z,99970
2018-02-16T11:04:25.916Z,99997
2018-02-16T11:06:37.330Z,100007
2018-02-16T11:08:46.637Z,99993
2018-02-16T11:10:52.513Z,100005
2018-02-16T11:12:58.355Z,100007
2018-02-16T11:15:03.695Z,100012
2018-02-16T11:17:09.027Z,100006
2018-02-16T11:19:14.599Z,100010
2018-02-16T11:21:20.629Z,100002
2018-02-16T11:23:26.441Z,100007
2018-02-16T11:25:33.743Z,100023
2018-02-16T11:27:39.899Z,100029
2018-02-16T11:29:45.534Z,100052
2018-02-16T11:31:51.126Z,100011
2018-02-16T11:33:56.485Z,100044
2018-02-16T11:36:01.818Z,100031
2018-02-16T11:38:07.557Z,100009
2018-02-16T11:40:13.113Z,100035
2018-02-16T11:42:18.517Z,100035
2018-02-16T11:44:24.327Z,100037
2018-02-16T11:46:32.698Z,100036
2018-02-16T11:48:38.026Z,100032
2018-02-16T11:50:43.719Z,100072
2018-02-16T11:52:49.138Z,100043
2018-02-16T11:54:54.408Z,100073
2018-02-16T11:56:59.954Z,100029
2018-02-16T11:59:05.203Z,100022
2018-02-16T12:01:10.546Z,100032
2018-02-16T12:03:15.848Z,100045
2018-02-16T12:05:22.047Z,100052
2018-02-16T12:07:28.038Z,100034
2018-02-16T12:09:33.413Z,100048
2018-02-16T12:11:38.996Z,100073
2018-02-16T12:13:44.382Z,100051
2018-02-16T12:15:49.703Z,100045
2018-02-16T12:17:55.353Z,100038
2018-02-16T12:20:00.823Z,100058
2018-02-16T12:22:06.070Z,100061
2018-02-16T12:24:11.633Z,100059
2018-02-16T12:26:17.098Z,100037
2018-02-16T12:28:22.423Z,100069
2018-02-16T12:30:28.096Z,100056
2018-02-16T12:32:33.430Z,100046
2018-02-16T12:34:38.859Z,100044
2018-02-16T12:36:44.458Z,100044
2018-02-16T12:38:49.787Z,100041
2018-02-16T12:40:55.038Z,100035
2018-02-16T12:43:00.584Z,100053
2018-02-16T12:45:05.967Z,100024
2018-02-16T12:47:11.230Z,100033
2018-02-16T12:49:16.957Z,100025
2018-02-16T12:51:22.331Z,100021
2018-02-16T12:53:28.370Z,100026
2018-02-16T12:55:34.049Z,100050
2018-02-16T12:57:41.652Z,100014
2018-02-16T12:59:47.138Z,100025
2018-02-16T13:01:52.782Z,100021
2018-02-16T13:03:58.117Z,100006
2018-02-16T13:06:03.410Z,100030
2018-02-16T13:08:09.737Z,100014
2018-02-16T13:10:15.030Z,100039
2018-02-16T13:12:22.606Z,100036
2018-02-16T13:14:30.974Z,100013
2018-02-16T13:16:36.583Z,100000
2018-02-16T13:18:41.919Z,100006
2018-02-16T13:20:48.676Z,100022
2018-02-16T13:22:54.419Z,100035
2018-02-16T13:25:00.248Z,99999
2018-02-16T13:27:05.826Z,100000
2018-02-16T13:29:11.431Z,100006
2018-02-16T13:31:17.305Z,100003
2018-02-16T13:33:23.078Z,100007
2018-02-16T13:35:30.305Z,100014
2018-02-16T13:37:35.648Z,100015
2018-02-16T13:39:41.264Z,100023
2018-02-16T13:41:46.665Z,100012
2018-02-16T13:43:51.972Z,100019
2018-02-16T13:45:57.663Z,100028
2018-02-16T13:48:03.132Z,100019
2018-02-16T13:50:08.547Z,100062
2018-02-16T13:52:14.494Z,100013
2018-02-16T13:54:19.814Z,100021
2018-02-16T13:56:25.123Z,100015
2018-02-16T13:58:32.266Z,100027
2018-02-16T14:00:38.643Z,100020
2018-02-16T14:02:44.265Z,100028
2018-02-16T14:04:50.207Z,100038
2018-02-16T14:06:55.621Z,100027
2018-02-16T14:09:01.436Z,100023
2018-02-16T14:11:07.124Z,100028
2018-02-16T14:13:12.508Z,100028
2018-02-16T14:15:17.993Z,100047
2018-02-16T14:17:23.628Z,100031
2018-02-16T14:19:29.069Z,100044
2018-02-16T14:21:34.325Z,100036
2018-02-16T14:23:40.043Z,100028
2018-02-16T14:25:47.549Z,100027
2018-02-16T14:27:53.357Z,100045
2018-02-16T14:29:59.646Z,100028
2018-02-16T14:32:05.002Z,100044
2018-02-16T14:34:10.377Z,100031
2018-02-16T14:36:15.998Z,100030
2018-02-16T14:38:21.355Z,100038
2018-02-16T14:40:28.401Z,100039
2018-02-16T14:42:38.569Z,100023
2018-02-16T14:44:44.864Z,100018
2018-02-16T14:46:50.395Z,100012
2018-02-16T14:49:00.192Z,100018
2018-02-16T14:51:05.583Z,100028
2018-02-16T14:53:11.114Z,100022
2018-02-16T14:55:16.722Z,100028
2018-02-16T14:57:22.035Z,100022
2018-02-16T14:59:27.262Z,100014
2018-02-16T15:01:32.847Z,100020
2018-02-16T15:03:38.176Z,100015
2018-02-16T15:05:43.476Z,100016
2018-02-16T15:07:49.974Z,100019
2018-02-16T15:09:55.380Z,100018
2018-02-16T15:12:00.727Z,100022
2018-02-16T15:14:06.997Z,100023
2018-02-16T15:16:13.090Z,100028
2018-02-16T15:18:18.392Z,100013
2018-02-16T15:20:24.632Z,100019
2018-02-16T15:22:31.127Z,100015
2018-02-16T15:24:36.551Z,100017
2018-02-16T15:26:42.245Z,100017
2018-02-16T15:28:47.552Z,100027
2018-02-16T15:30:52.864Z,100041
2018-02-16T15:32:58.458Z,100031
2018-02-16T15:35:03.897Z,100032
2018-02-16T15:37:10.702Z,100029
2018-02-16T15:39:18.917Z,100032
2018-02-16T15:41:24.362Z,100031
2018-02-16T15:43:29.699Z,100030
2018-02-16T15:45:35.310Z,100034
2018-02-16T15:47:40.815Z,100028
2018-02-16T15:49:46.133Z,100030
2018-02-16T15:51:52.497Z,100031
2018-02-16T15:53:57.897Z,100048
2018-02-16T15:56:03.143Z,100051
2018-02-16T15:58:08.766Z,100036
2018-02-16T16:00:14.070Z,100037
2018-02-16T16:02:19.545Z,100045
2018-02-16T16:04:25.162Z,100043
2018-02-16T16:06:30.485Z,100039
2018-02-16T16:08:35.730Z,100039
2018-02-16T16:10:41.352Z,100047
2018-02-16T16:12:46.646Z,100042
2018-02-16T16:14:52.146Z,100043
2018-02-16T16:16:57.746Z,100046
2018-02-16T16:19:03.171Z,100034
2018-02-16T16:21:09.700Z,100039
2018-02-16T16:23:15.367Z,100045
2018-02-16T16:25:20.856Z,100047
2018-02-16T16:27:26.203Z,100042
2018-02-16T16:29:31.941Z,100046
2018-02-16T16:31:37.313Z,100051
2018-02-16T16:33:42.758Z,100042
2018-02-16T16:35:48.413Z,100042
2018-02-16T16:37:53.763Z,100046
2018-02-16T16:39:59.351Z,100054
2018-02-16T16:42:04.935Z,100048
2018-02-16T16:44:11.609Z,100049
2018-02-16T16:46:17.524Z,100049
2018-02-16T16:48:23.096Z,100055
2018-02-16T16:50:28.436Z,100058
2018-02-16T16:52:38.033Z,100060
2018-02-16T16:54:43.701Z,100065
2018-02-16T16:56:48.986Z,100065
2018-02-16T16:58:54.309Z,100065
2018-02-16T17:00:59.887Z,100079
2018-02-16T17:03:05.333Z,100089
2018-02-16T17:05:11.027Z,100082
2018-02-16T17:07:17.265Z,100084
2018-02-16T17:09:22.584Z,100088
2018-02-16T17:11:27.869Z,100094
2018-02-16T17:13:33.410Z,100107
2018-02-16T17:15:38.768Z,100087
2018-02-16T17:17:44.213Z,100107
2018-02-16T17:19:49.884Z,100106
2018-02-16T17:21:56.118Z,100121
2018-02-16T17:24:01.414Z,100103
2018-02-16T17:26:07.089Z,100121
2018-02-16T17:28:12.397Z,100118
2018-02-16T17:30:17.658Z,100109
2018-02-16T17:32:23.584Z,100113
2018-02-16T17:34:28.959Z,100115
2018-02-16T17:36:34.226Z,100100
2018-02-16T17:38:39.870Z,100106
2018-02-16T17:40:45.254Z,100114
2018-02-16T17:42:50.991Z,100102
2018-02-16T17:44:56.558Z,100106
2018-02-16T17:47:01.865Z,100111
2018-02-16T17:49:07.147Z,100119
2018-02-16T17:51:12.728Z,100113
2018-02-16T17:53:18.020Z,100116
2018-02-16T17:55:23.346Z,100113
2018-02-16T17:57:28.927Z,100128
2018-02-16T17:59:34.912Z,100121
2018-02-16T18:01:40.366Z,100119
2018-02-16T18:03:46.850Z,100122
2018-02-16T18:05:52.650Z,100116
2018-02-16T18:07:58.050Z,100127
2018-02-16T18:10:04.011Z,100111
2018-02-16T18:12:09.503Z,100127
2018-02-16T18:14:14.803Z,100121
2018-02-16T18:16:23.991Z,100116
2018-02-16T18:18:30.120Z,100125
2018-02-16T18:20:40.908Z,100116
2018-02-16T18:22:46.684Z,100123
2018-02-16T18:24:52.036Z,100115
2018-02-16T18:26:57.532Z,100121
2018-02-16T18:29:03.468Z,100129
2018-02-16T18:31:09.097Z,100129
2018-02-16T18:33:14.527Z,100126
2018-02-16T18:35:22.167Z,100127
2018-02-16T18:37:31.548Z,100129
2018-02-16T18:39:37.282Z,100123
2018-02-16T18:41:42.906Z,100128
2018-02-16T18:43:48.149Z,100125
2018-02-16T18:45:53.468Z,100122
2018-02-16T18:47:59.139Z,100123
2018-02-16T18:50:05.377Z,100122
2018-02-16T18:52:10.875Z,100127
2018-02-16T18:54:21.390Z,100126
2018-02-16T18:56:32.710Z,100130
2018-02-16T18:58:38.711Z,100133
2018-02-16T19:00:44.322Z,100127
2018-02-16T19:02:49.936Z,100125
2018-02-16T19:04:56.611Z,100128
2018-02-16T19:07:02.575Z,100130
2018-02-16T19:09:08.046Z,100116
2018-02-16T19:11:14.202Z,100122
2018-02-16T19:13:19.986Z,100127
2018-02-16T19:15:28.753Z,100122
2018-02-16T19:17:34.850Z,100123
2018-02-16T19:19:41.283Z,100136
2018-02-16T19:21:47.545Z,100129
2018-02-16T19:23:52.934Z,100130
2018-02-16T19:25:58.631Z,100127
2018-02-16T19:28:03.952Z,100131
2018-02-16T19:30:09.307Z,100131
2018-02-16T19:32:16.917Z,100131
2018-02-16T19:34:22.511Z,100134
2018-02-16T19:36:28.331Z,100126
2018-02-16T19:38:34.017Z,100126
2018-02-16T19:40:40.278Z,100127
2018-02-16T19:42:47.543Z,100129
2018-02-16T19:44:57.409Z,100125
2018-02-16T19:47:02.786Z,100129
2018-02-16T19:49:08.503Z,100123
2018-02-16T19:51:19.569Z,100122
2018-02-16T19:53:28.013Z,100117
2018-02-16T19:55:33.294Z,100110
2018-02-16T19:57:39.031Z,100110
2018-02-16T19:59:44.903Z,100108
2018-02-16T20:01:50.450Z,100108
2018-02-16T20:03:56.072Z,100108
2018-02-16T20:06:01.937Z,100108
2018-02-16T20:08:07.702Z,100107
2018-02-16T20:10:13.402Z,100109
2018-02-16T20:12:18.732Z,100108
2018-02-16T20:14:24.029Z,100108
2018-02-16T20:16:30.300Z,100109
2018-02-16T20:18:36.722Z,100109
2018-02-16T20:20:42.961Z,100106
2018-02-16T20:22:48.784Z,100109
2018-02-16T20:24:54.059Z,100106
2018-02-16T20:27:00.203Z,100109
2018-02-16T20:29:06.864Z,100108
2018-02-16T20:31:12.260Z,100112
2018-02-16T20:33:17.894Z,100108
2018-02-16T20:35:23.667Z,100095
2018-02-16T20:37:28.977Z,100102
2018-02-16T20:39:34.305Z,100098
2018-02-16T20:41:39.991Z,100096
2018-02-16T20:43:45.294Z,100089
2018-02-16T20:45:50.682Z,100092
2018-02-16T20:47:56.203Z,100085
2018-02-16T20:50:01.549Z,100090
2018-02-16T20:52:07.049Z,100092
2018-02-16T20:54:12.696Z,100096
2018-02-16T20:56:18.071Z,100101
2018-02-16T20:58:23.387Z,100098
2018-02-16T21:00:30.284Z,100106
2018-02-16T21:02:35.617Z,100107
2018-02-16T21:04:41.029Z,100097
2018-02-16T21:06:46.949Z,100102
2018-02-16T21:08:52.637Z,100101
2018-02-16T21:10:58.721Z,100101
2018-02-16T21:13:06.290Z,100115
2018-02-16T21:15:11.690Z,100107
2018-02-16T21:17:16.983Z,100112
2018-02-16T21:19:22.659Z,100121
2018-02-16T21:21:28.081Z,100125
2018-02-16T21:23:33.742Z,100129
2018-02-16T21:25:43.858Z,100128
2018-02-16T21:27:49.668Z,100124
2018-02-16T21:29:55.257Z,100126
2018-02-16T21:32:00.939Z,100127
2018-02-16T21:34:11.257Z,100129
2018-02-16T21:36:19.985Z,100123
2018-02-16T21:38:27.480Z,100123
2018-02-16T21:40:33.243Z,100123
2018-02-16T21:42:40.262Z,100130
2018-02-16T21:44:45.992Z,100133
2018-02-16T21:46:51.323Z,100138
2018-02-16T21:48:56.616Z,100147
2018-02-16T21:51:02.225Z,100156
2018-02-16T21:53:07.520Z,100154
2018-02-16T21:55:12.976Z,100160
2018-02-16T21:57:18.535Z,100165
2018-02-16T21:59:23.866Z,100164
2018-02-16T22:01:29.397Z,100166
2018-02-16T22:03:35.021Z,100163
2018-02-16T22:05:40.366Z,100158
2018-02-16T22:07:46.138Z,100160
2018-02-16T22:09:52.720Z,100156
2018-02-16T22:11:58.020Z,100154
2018-02-16T22:14:05.391Z,100146
2018-02-16T22:16:11.107Z,100149
2018-02-16T22:18:16.446Z,100150
2018-02-16T22:20:21.819Z,100147
2018-02-16T22:22:27.599Z,100139
2018-02-16T22:24:33.451Z,100136
2018-02-16T22:26:38.834Z,100134
2018-02-16T22:28:44.479Z,100135
2018-02-16T22:30:49.832Z,100137
2018-02-16T22:32:55.630Z,100141
2018-02-16T22:35:01.422Z,100141
2018-02-16T22:37:06.650Z,100138
2018-02-16T22:39:12.054Z,100136
2018-02-16T22:41:17.742Z,100128
2018-02-16T22:43:23.778Z,100132
2018-02-16T22:45:30.358Z,100139
2018-02-16T22:47:36.042Z,100141
2018-02-16T22:49:41.294Z,100141
2018-02-16T22:51:46.674Z,100135
2018-02-16T22:53:52.261Z,100140
2018-02-16T22:55:57.754Z,100142
2018-02-16T22:58:03.382Z,100137
2018-02-16T23:00:09.228Z,100136
2018-02-16T23:02:15.405Z,100138
2018-02-16T23:04:21.382Z,100136
2018-02-16T23:06:27.026Z,100132
2018-02-16T23:08:32.350Z,100128
2018-02-16T23:10:41.875Z,100131
2018-02-16T23:12:47.487Z,100135
2018-02-16T23:14:52.819Z,100144
2018-02-16T23:16:58.355Z,100140
2018-02-16T23:19:04.298Z,100140
2018-02-16T23:21:09.680Z,100140
2018-02-16T23:23:15.031Z,100138
2018-02-16T23:25:20.640Z,100140
2018-02-16T23:27:25.996Z,100139
2018-02-16T23:29:31.500Z,100139
2018-02-16T23:31:37.743Z,100141
2018-02-16T23:33:43.152Z,100141
2018-02-16T23:35:48.514Z,100146
2018-02-16T23:37:54.241Z,100144
2018-02-16T23:39:59.626Z,100145
2018-02-16T23:42:06.186Z,100146
2018-02-16T23:44:13.288Z,100140
2018-02-16T23:46:18.583Z,100141
2018-02-16T23:48:23.839Z,100132
2018-02-16T23:50:30.676Z,100138
2018-02-16T23:52:36.052Z,100140
2018-02-16T23:54:41.402Z,100137
2018-02-16T23:56:47.506Z,100134
2018-02-16T23:58:53.226Z,100134
